sensor_id;sensor_type;location;lat;lon;timestamp;pressure;altitude;pressure_sealevel;temperature;humidity
19831;BME280;10076;52.008;4.708;2023-04-08T00:00:53;102349.75;;;11.93;100.00
19831;BME280;10076;52.008;4.708;2023-04-08T00:03:19;102351.56;;;12.08;100.00
19831;BME280;10076;52.008;4.708;2023-04-08T00:05:44;102348.16;;;12.06;100.00
19831;BME280;10076;52.008;4.708;2023-04-08T00:08:10;102345.78;;;11.85;100.00
19831;BME280;10076;52.008;4.708;2023-04-08T00:10:35;102346.09;;;11.79;100.00
19831;BME280;10076;52.008;4.708;2023-04-08T00:13:00;102354.44;;;11.72;100.00
19831;BME280;10076;52.008;4.708;2023-04-08T00:15:26;102343.53;;;11.77;100.00
19831;BME280;10076;52.008;4.708;2023-04-08T00:17:51;102345.09;;;11.81;100.00
19831;BME280;10076;52.008;4.708;2023-04-08T00:20:19;102349.28;;;11.69;100.00
19831;BME280;10076;52.008;4.708;2023-04-08T00:22:44;102357.13;;;11.70;100.00
19831;BME280;10076;52.008;4.708;2023-04-08T00:25:10;102355.19;;;11.73;100.00
19831;BME280;10076;52.008;4.708;2023-04-08T00:27:36;102351.22;;;11.82;100.00
19831;BME280;10076;52.008;4.708;2023-04-08T00:30:01;102358.44;;;11.78;100.00
19831;BME280;10076;52.008;4.708;2023-04-08T00:32:27;102354.13;;;11.77;100.00
19831;BME280;10076;52.008;4.708;2023-04-08T00:34:53;102356.13;;;11.89;100.00
19831;BME280;10076;52.008;4.708;2023-04-08T00:37:18;102353.72;;;11.85;100.00
19831;BME280;10076;52.008;4.708;2023-04-08T00:39:44;102352.94;;;11.83;100.00
19831;BME280;10076;52.008;4.708;2023-04-08T00:42:09;102354.41;;;11.88;100.00
19831;BME280;10076;52.008;4.708;2023-04-08T00:44:35;102354.25;;;11.91;100.00
19831;BME280;10076;52.008;4.708;2023-04-08T00:47:00;102356.75;;;11.94;100.00
19831;BME280;10076;52.008;4.708;2023-04-08T00:49:26;102347.69;;;11.98;100.00
19831;BME280;10076;52.008;4.708;2023-04-08T00:51:52;102357.88;;;12.06;100.00
19831;BME280;10076;52.008;4.708;2023-04-08T00:54:18;102357.69;;;11.93;100.00
19831;BME280;10076;52.008;4.708;2023-04-08T00:56:43;102361.44;;;11.73;100.00
19831;BME280;10076;52.008;4.708;2023-04-08T00:59:09;102363.84;;;11.77;100.00
19831;BME280;10076;52.008;4.708;2023-04-08T01:01:54;102360.16;;;11.79;100.00
19831;BME280;10076;52.008;4.708;2023-04-08T01:04:48;102358.13;;;11.84;100.00
19831;BME280;10076;52.008;4.708;2023-04-08T01:07:27;102365.63;;;11.76;100.00
19831;BME280;10076;52.008;4.708;2023-04-08T01:09:55;102367.06;;;11.67;100.00
19831;BME280;10076;52.008;4.708;2023-04-08T01:12:25;102371.56;;;11.65;100.00
19831;BME280;10076;52.008;4.708;2023-04-08T01:14:56;102366.03;;;11.69;100.00
19831;BME280;10076;52.008;4.708;2023-04-08T01:17:23;102373.81;;;11.72;100.00
19831;BME280;10076;52.008;4.708;2023-04-08T01:19:49;102370.13;;;11.74;100.00
19831;BME280;10076;52.008;4.708;2023-04-08T01:25:15;102374.69;;;11.73;100.00
19831;BME280;10076;52.008;4.708;2023-04-08T01:27:42;102372.34;;;11.67;100.00
19831;BME280;10076;52.008;4.708;2023-04-08T01:30:08;102371.38;;;11.68;100.00
19831;BME280;10076;52.008;4.708;2023-04-08T01:32:34;102375.03;;;11.65;100.00
19831;BME280;10076;52.008;4.708;2023-04-08T01:35:01;102373.88;;;11.71;100.00
19831;BME280;10076;52.008;4.708;2023-04-08T01:37:27;102364.09;;;11.73;100.00
19831;BME280;10076;52.008;4.708;2023-04-08T01:39:54;102371.69;;;11.78;100.00
19831;BME280;10076;52.008;4.708;2023-04-08T01:42:23;102375.75;;;11.85;100.00
19831;BME280;10076;52.008;4.708;2023-04-08T01:44:51;102376.00;;;11.81;100.00
19831;BME280;10076;52.008;4.708;2023-04-08T01:47:16;102370.81;;;11.95;100.00
19831;BME280;10076;52.008;4.708;2023-04-08T01:49:43;102377.47;;;11.86;100.00
19831;BME280;10076;52.008;4.708;2023-04-08T01:52:08;102377.69;;;11.82;100.00
19831;BME280;10076;52.008;4.708;2023-04-08T01:54:34;102380.72;;;11.74;100.00
19831;BME280;10076;52.008;4.708;2023-04-08T01:57:03;102383.94;;;11.81;100.00
19831;BME280;10076;52.008;4.708;2023-04-08T01:59:30;102382.13;;;11.81;100.00
19831;BME280;10076;52.008;4.708;2023-04-08T02:02:00;102379.00;;;11.73;100.00
19831;BME280;10076;52.008;4.708;2023-04-08T02:04:26;102385.41;;;11.70;100.00
19831;BME280;10076;52.008;4.708;2023-04-08T02:06:51;102382.53;;;11.74;100.00
19831;BME280;10076;52.008;4.708;2023-04-08T02:09:16;102383.78;;;11.67;100.00
19831;BME280;10076;52.008;4.708;2023-04-08T02:11:42;102381.91;;;11.69;100.00
19831;BME280;10076;52.008;4.708;2023-04-08T02:14:07;102377.47;;;11.70;100.00
19831;BME280;10076;52.008;4.708;2023-04-08T02:16:39;102382.56;;;11.56;100.00
19831;BME280;10076;52.008;4.708;2023-04-08T02:19:14;102385.50;;;11.50;100.00
19831;BME280;10076;52.008;4.708;2023-04-08T02:21:45;102389.53;;;11.40;100.00
19831;BME280;10076;52.008;4.708;2023-04-08T02:24:12;102385.13;;;11.40;100.00
19831;BME280;10076;52.008;4.708;2023-04-08T02:26:41;102390.47;;;11.39;100.00
19831;BME280;10076;52.008;4.708;2023-04-08T02:29:11;102394.81;;;11.40;100.00
19831;BME280;10076;52.008;4.708;2023-04-08T02:31:37;102391.25;;;11.41;100.00
19831;BME280;10076;52.008;4.708;2023-04-08T02:34:07;102396.72;;;11.38;100.00
19831;BME280;10076;52.008;4.708;2023-04-08T02:36:33;102394.41;;;11.30;100.00
19831;BME280;10076;52.008;4.708;2023-04-08T02:38:59;102395.28;;;11.31;100.00
19831;BME280;10076;52.008;4.708;2023-04-08T02:41:27;102390.03;;;11.12;100.00
19831;BME280;10076;52.008;4.708;2023-04-08T02:43:53;102391.19;;;11.07;100.00
19831;BME280;10076;52.008;4.708;2023-04-08T02:46:19;102393.66;;;11.10;100.00
19831;BME280;10076;52.008;4.708;2023-04-08T02:48:44;102403.47;;;11.08;100.00
19831;BME280;10076;52.008;4.708;2023-04-08T02:51:10;102396.75;;;11.01;100.00
19831;BME280;10076;52.008;4.708;2023-04-08T02:53:35;102395.34;;;10.94;100.00
19831;BME280;10076;52.008;4.708;2023-04-08T02:56:00;102401.41;;;10.96;100.00
19831;BME280;10076;52.008;4.708;2023-04-08T02:58:26;102405.19;;;10.91;100.00
19831;BME280;10076;52.008;4.708;2023-04-08T03:00:51;102410.47;;;10.91;100.00
19831;BME280;10076;52.008;4.708;2023-04-08T03:03:16;102400.28;;;10.83;100.00
19831;BME280;10076;52.008;4.708;2023-04-08T03:05:42;102404.47;;;10.87;100.00
19831;BME280;10076;52.008;4.708;2023-04-08T03:08:07;102403.44;;;10.91;100.00
19831;BME280;10076;52.008;4.708;2023-04-08T03:10:32;102403.25;;;10.94;100.00
19831;BME280;10076;52.008;4.708;2023-04-08T03:12:57;102413.00;;;10.94;100.00
19831;BME280;10076;52.008;4.708;2023-04-08T03:15:23;102413.19;;;10.89;100.00
19831;BME280;10076;52.008;4.708;2023-04-08T03:17:48;102406.91;;;10.92;100.00
19831;BME280;10076;52.008;4.708;2023-04-08T03:20:13;102415.63;;;10.94;100.00
19831;BME280;10076;52.008;4.708;2023-04-08T03:22:39;102418.50;;;10.89;100.00
19831;BME280;10076;52.008;4.708;2023-04-08T03:25:04;102420.19;;;10.90;100.00
19831;BME280;10076;52.008;4.708;2023-04-08T03:27:30;102416.75;;;10.88;100.00
19831;BME280;10076;52.008;4.708;2023-04-08T03:29:55;102416.75;;;10.88;100.00
19831;BME280;10076;52.008;4.708;2023-04-08T03:32:22;102416.94;;;10.85;100.00
19831;BME280;10076;52.008;4.708;2023-04-08T03:34:47;102421.34;;;10.85;100.00
19831;BME280;10076;52.008;4.708;2023-04-08T03:37:15;102419.31;;;10.90;100.00
19831;BME280;10076;52.008;4.708;2023-04-08T03:39:41;102417.47;;;10.92;100.00
19831;BME280;10076;52.008;4.708;2023-04-08T03:42:06;102422.81;;;10.72;100.00
19831;BME280;10076;52.008;4.708;2023-04-08T03:44:31;102425.19;;;10.78;100.00
19831;BME280;10076;52.008;4.708;2023-04-08T03:46:56;102422.13;;;10.68;100.00
19831;BME280;10076;52.008;4.708;2023-04-08T03:49:22;102426.47;;;10.69;100.00
19831;BME280;10076;52.008;4.708;2023-04-08T03:51:47;102428.63;;;10.80;100.00
19831;BME280;10076;52.008;4.708;2023-04-08T03:54:12;102432.75;;;10.67;100.00
19831;BME280;10076;52.008;4.708;2023-04-08T03:56:38;102441.09;;;10.58;100.00
19831;BME280;10076;52.008;4.708;2023-04-08T03:59:03;102440.22;;;10.57;100.00
19831;BME280;10076;52.008;4.708;2023-04-08T04:01:28;102443.75;;;10.58;100.00
19831;BME280;10076;52.008;4.708;2023-04-08T04:03:56;102444.47;;;10.61;100.00
19831;BME280;10076;52.008;4.708;2023-04-08T04:06:21;102441.91;;;10.60;100.00
19831;BME280;10076;52.008;4.708;2023-04-08T04:08:46;102443.88;;;10.55;100.00
19831;BME280;10076;52.008;4.708;2023-04-08T04:11:11;102449.66;;;10.44;100.00
19831;BME280;10076;52.008;4.708;2023-04-08T04:13:37;102449.56;;;10.46;100.00
19831;BME280;10076;52.008;4.708;2023-04-08T04:16:02;102456.94;;;10.58;100.00
19831;BME280;10076;52.008;4.708;2023-04-08T04:18:28;102447.03;;;10.63;100.00
19831;BME280;10076;52.008;4.708;2023-04-08T04:20:53;102446.84;;;10.67;100.00
19831;BME280;10076;52.008;4.708;2023-04-08T04:23:18;102455.19;;;10.77;100.00
19831;BME280;10076;52.008;4.708;2023-04-08T04:25:43;102452.75;;;10.72;100.00
19831;BME280;10076;52.008;4.708;2023-04-08T04:28:09;102456.59;;;10.65;100.00
19831;BME280;10076;52.008;4.708;2023-04-08T04:30:38;102463.59;;;10.66;100.00
19831;BME280;10076;52.008;4.708;2023-04-08T04:33:04;102465.59;;;10.61;100.00
19831;BME280;10076;52.008;4.708;2023-04-08T04:35:29;102463.03;;;10.60;100.00
19831;BME280;10076;52.008;4.708;2023-04-08T04:37:55;102468.88;;;10.66;100.00
19831;BME280;10076;52.008;4.708;2023-04-08T04:40:20;102461.44;;;10.56;100.00
19831;BME280;10076;52.008;4.708;2023-04-08T04:42:46;102473.00;;;10.53;100.00
19831;BME280;10076;52.008;4.708;2023-04-08T04:45:11;102464.56;;;10.45;100.00
19831;BME280;10076;52.008;4.708;2023-04-08T04:47:37;102478.69;;;10.44;100.00
19831;BME280;10076;52.008;4.708;2023-04-08T04:50:02;102481.72;;;10.55;100.00
19831;BME280;10076;52.008;4.708;2023-04-08T04:52:28;102477.16;;;10.59;100.00
19831;BME280;10076;52.008;4.708;2023-04-08T04:54:53;102483.63;;;10.52;100.00
19831;BME280;10076;52.008;4.708;2023-04-08T04:57:18;102484.16;;;10.60;100.00
19831;BME280;10076;52.008;4.708;2023-04-08T04:59:44;102483.94;;;10.64;100.00
19831;BME280;10076;52.008;4.708;2023-04-08T05:02:09;102492.75;;;10.65;100.00
19831;BME280;10076;52.008;4.708;2023-04-08T05:04:34;102487.47;;;10.65;100.00
19831;BME280;10076;52.008;4.708;2023-04-08T05:07:00;102491.47;;;10.53;100.00
19831;BME280;10076;52.008;4.708;2023-04-08T05:09:25;102486.84;;;10.58;100.00
19831;BME280;10076;52.008;4.708;2023-04-08T05:11:50;102484.09;;;10.61;100.00
19831;BME280;10076;52.008;4.708;2023-04-08T05:14:16;102488.56;;;10.59;100.00
19831;BME280;10076;52.008;4.708;2023-04-08T05:16:41;102487.72;;;10.59;100.00
19831;BME280;10076;52.008;4.708;2023-04-08T05:19:07;102495.03;;;10.52;100.00
19831;BME280;10076;52.008;4.708;2023-04-08T05:21:32;102497.41;;;10.58;100.00
19831;BME280;10076;52.008;4.708;2023-04-08T05:23:57;102501.44;;;10.67;100.00
19831;BME280;10076;52.008;4.708;2023-04-08T05:26:22;102503.31;;;10.65;100.00
19831;BME280;10076;52.008;4.708;2023-04-08T05:28:48;102512.19;;;10.82;100.00
19831;BME280;10076;52.008;4.708;2023-04-08T05:31:15;102504.13;;;10.85;100.00
19831;BME280;10076;52.008;4.708;2023-04-08T05:33:41;102514.31;;;10.74;100.00
19831;BME280;10076;52.008;4.708;2023-04-08T05:36:06;102506.66;;;10.68;100.00
19831;BME280;10076;52.008;4.708;2023-04-08T05:38:31;102516.28;;;10.69;100.00
19831;BME280;10076;52.008;4.708;2023-04-08T05:40:56;102511.06;;;10.68;100.00
19831;BME280;10076;52.008;4.708;2023-04-08T05:43:22;102521.97;;;10.80;100.00
19831;BME280;10076;52.008;4.708;2023-04-08T05:45:47;102521.19;;;10.78;100.00
19831;BME280;10076;52.008;4.708;2023-04-08T05:48:12;102523.81;;;10.78;100.00
19831;BME280;10076;52.008;4.708;2023-04-08T05:50:38;102528.03;;;10.82;100.00
19831;BME280;10076;52.008;4.708;2023-04-08T05:53:03;102524.81;;;10.76;100.00
19831;BME280;10076;52.008;4.708;2023-04-08T05:55:28;102533.97;;;10.87;100.00
19831;BME280;10076;52.008;4.708;2023-04-08T05:57:54;102540.06;;;10.89;100.00
19831;BME280;10076;52.008;4.708;2023-04-08T06:00:19;102535.78;;;11.05;100.00
19831;BME280;10076;52.008;4.708;2023-04-08T06:02:45;102533.66;;;10.95;100.00
19831;BME280;10076;52.008;4.708;2023-04-08T06:05:10;102539.69;;;10.97;100.00
19831;BME280;10076;52.008;4.708;2023-04-08T06:07:36;102541.28;;;11.00;100.00
19831;BME280;10076;52.008;4.708;2023-04-08T06:10:01;102540.59;;;11.15;100.00
19831;BME280;10076;52.008;4.708;2023-04-08T06:12:27;102538.03;;;11.14;100.00
19831;BME280;10076;52.008;4.708;2023-04-08T06:14:53;102539.78;;;11.13;100.00
19831;BME280;10076;52.008;4.708;2023-04-08T06:17:19;102543.31;;;11.14;100.00
19831;BME280;10076;52.008;4.708;2023-04-08T06:19:45;102546.88;;;11.13;100.00
19831;BME280;10076;52.008;4.708;2023-04-08T06:22:10;102550.09;;;11.19;100.00
19831;BME280;10076;52.008;4.708;2023-04-08T06:24:36;102548.88;;;11.26;100.00
19831;BME280;10076;52.008;4.708;2023-04-08T06:27:01;102557.09;;;11.39;100.00
19831;BME280;10076;52.008;4.708;2023-04-08T06:29:27;102559.25;;;11.49;100.00
19831;BME280;10076;52.008;4.708;2023-04-08T06:31:54;102562.66;;;11.53;100.00
19831;BME280;10076;52.008;4.708;2023-04-08T06:34:19;102571.09;;;11.61;100.00
19831;BME280;10076;52.008;4.708;2023-04-08T06:36:44;102572.50;;;11.68;100.00
19831;BME280;10076;52.008;4.708;2023-04-08T06:39:10;102576.13;;;11.65;100.00
19831;BME280;10076;52.008;4.708;2023-04-08T06:41:35;102583.38;;;11.62;100.00
19831;BME280;10076;52.008;4.708;2023-04-08T06:44:01;102583.03;;;11.69;100.00
19831;BME280;10076;52.008;4.708;2023-04-08T06:46:26;102577.66;;;11.71;100.00
19831;BME280;10076;52.008;4.708;2023-04-08T06:48:52;102587.81;;;11.96;100.00
19831;BME280;10076;52.008;4.708;2023-04-08T06:51:17;102582.41;;;11.99;100.00
19831;BME280;10076;52.008;4.708;2023-04-08T06:53:42;102590.69;;;12.10;100.00
19831;BME280;10076;52.008;4.708;2023-04-08T06:56:08;102589.22;;;11.86;100.00
19831;BME280;10076;52.008;4.708;2023-04-08T06:58:33;102585.72;;;11.86;100.00
19831;BME280;10076;52.008;4.708;2023-04-08T07:00:59;102594.84;;;11.97;100.00
19831;BME280;10076;52.008;4.708;2023-04-08T07:03:25;102597.66;;;11.94;100.00
19831;BME280;10076;52.008;4.708;2023-04-08T07:05:51;102604.38;;;12.01;100.00
19831;BME280;10076;52.008;4.708;2023-04-08T07:08:17;102602.94;;;11.94;100.00
19831;BME280;10076;52.008;4.708;2023-04-08T07:10:42;102609.13;;;12.12;100.00
19831;BME280;10076;52.008;4.708;2023-04-08T07:13:07;102601.38;;;12.26;100.00
19831;BME280;10076;52.008;4.708;2023-04-08T07:15:33;102605.56;;;12.30;100.00
19831;BME280;10076;52.008;4.708;2023-04-08T07:17:58;102609.25;;;12.44;100.00
19831;BME280;10076;52.008;4.708;2023-04-08T07:20:24;102616.66;;;12.38;100.00
19831;BME280;10076;52.008;4.708;2023-04-08T07:22:52;102609.72;;;12.35;100.00
19831;BME280;10076;52.008;4.708;2023-04-08T07:25:18;102612.78;;;12.44;100.00
19831;BME280;10076;52.008;4.708;2023-04-08T07:27:43;102619.72;;;12.47;100.00
19831;BME280;10076;52.008;4.708;2023-04-08T07:30:09;102621.34;;;12.66;100.00
19831;BME280;10076;52.008;4.708;2023-04-08T07:32:34;102618.31;;;12.74;100.00
19831;BME280;10076;52.008;4.708;2023-04-08T07:35:00;102621.97;;;13.05;100.00
19831;BME280;10076;52.008;4.708;2023-04-08T07:37:26;102624.09;;;12.99;100.00
19831;BME280;10076;52.008;4.708;2023-04-08T07:39:52;102624.72;;;13.04;100.00
19831;BME280;10076;52.008;4.708;2023-04-08T07:42:17;102626.25;;;13.08;100.00
19831;BME280;10076;52.008;4.708;2023-04-08T07:44:44;102628.69;;;13.12;100.00
19831;BME280;10076;52.008;4.708;2023-04-08T07:47:09;102625.19;;;13.27;100.00
19831;BME280;10076;52.008;4.708;2023-04-08T07:49:36;102629.78;;;13.56;100.00
19831;BME280;10076;52.008;4.708;2023-04-08T07:52:01;102630.97;;;13.82;100.00
19831;BME280;10076;52.008;4.708;2023-04-08T07:54:26;102632.31;;;13.74;100.00
19831;BME280;10076;52.008;4.708;2023-04-08T07:56:52;102633.66;;;13.81;100.00
19831;BME280;10076;52.008;4.708;2023-04-08T07:59:17;102636.59;;;13.61;100.00
19831;BME280;10076;52.008;4.708;2023-04-08T08:01:42;102631.34;;;13.75;100.00
19831;BME280;10076;52.008;4.708;2023-04-08T08:04:08;102637.28;;;13.80;100.00
19831;BME280;10076;52.008;4.708;2023-04-08T08:06:33;102631.88;;;13.81;100.00
19831;BME280;10076;52.008;4.708;2023-04-08T08:08:59;102636.16;;;13.84;100.00
19831;BME280;10076;52.008;4.708;2023-04-08T08:11:25;102640.47;;;14.02;100.00
19831;BME280;10076;52.008;4.708;2023-04-08T08:13:53;102640.44;;;14.33;100.00
19831;BME280;10076;52.008;4.708;2023-04-08T08:16:19;102646.06;;;14.57;100.00
19831;BME280;10076;52.008;4.708;2023-04-08T08:18:44;102649.31;;;14.62;100.00
19831;BME280;10076;52.008;4.708;2023-04-08T08:21:09;102654.47;;;14.65;100.00
19831;BME280;10076;52.008;4.708;2023-04-08T08:23:35;102657.81;;;14.83;100.00
19831;BME280;10076;52.008;4.708;2023-04-08T08:26:04;102648.06;;;15.26;100.00
19831;BME280;10076;52.008;4.708;2023-04-08T08:28:30;102651.78;;;15.52;100.00
19831;BME280;10076;52.008;4.708;2023-04-08T08:30:56;102647.50;;;15.49;100.00
19831;BME280;10076;52.008;4.708;2023-04-08T08:33:21;102649.47;;;15.60;100.00
19831;BME280;10076;52.008;4.708;2023-04-08T08:35:46;102664.03;;;15.54;100.00
19831;BME280;10076;52.008;4.708;2023-04-08T08:38:11;102653.56;;;15.65;100.00
19831;BME280;10076;52.008;4.708;2023-04-08T08:40:38;102657.38;;;15.75;100.00
19831;BME280;10076;52.008;4.708;2023-04-08T08:43:03;102656.72;;;15.58;100.00
19831;BME280;10076;52.008;4.708;2023-04-08T08:45:29;102670.88;;;15.58;100.00
19831;BME280;10076;52.008;4.708;2023-04-08T08:47:55;102668.53;;;15.54;100.00
19831;BME280;10076;52.008;4.708;2023-04-08T08:50:20;102659.19;;;15.61;100.00
19831;BME280;10076;52.008;4.708;2023-04-08T08:52:50;102662.91;;;15.72;100.00
19831;BME280;10076;52.008;4.708;2023-04-08T08:55:18;102669.63;;;15.91;100.00
19831;BME280;10076;52.008;4.708;2023-04-08T08:57:43;102667.84;;;16.18;100.00
19831;BME280;10076;52.008;4.708;2023-04-08T09:00:09;102664.31;;;16.58;100.00
19831;BME280;10076;52.008;4.708;2023-04-08T09:02:35;102661.53;;;17.11;100.00
19831;BME280;10076;52.008;4.708;2023-04-08T09:05:02;102660.19;;;17.67;100.00
19831;BME280;10076;52.008;4.708;2023-04-08T09:07:29;102658.41;;;17.91;100.00
19831;BME280;10076;52.008;4.708;2023-04-08T09:09:57;102668.13;;;18.04;100.00
19831;BME280;10076;52.008;4.708;2023-04-08T09:12:23;102673.56;;;18.39;100.00
19831;BME280;10076;52.008;4.708;2023-04-08T09:14:50;102672.81;;;18.83;100.00
19831;BME280;10076;52.008;4.708;2023-04-08T09:17:15;102672.50;;;18.99;100.00
19831;BME280;10076;52.008;4.708;2023-04-08T09:20:09;102674.88;;;18.80;100.00
19831;BME280;10076;52.008;4.708;2023-04-08T09:22:57;102676.53;;;18.70;100.00
19831;BME280;10076;52.008;4.708;2023-04-08T09:25:31;102677.25;;;19.51;100.00
19831;BME280;10076;52.008;4.708;2023-04-08T09:27:57;102674.59;;;20.59;100.00
19831;BME280;10076;52.008;4.708;2023-04-08T09:30:23;102676.03;;;21.85;100.00
19831;BME280;10076;52.008;4.708;2023-04-08T09:32:54;102676.53;;;23.24;100.00
19831;BME280;10076;52.008;4.708;2023-04-08T09:35:20;102672.72;;;23.99;100.00
19831;BME280;10076;52.008;4.708;2023-04-08T09:37:46;102673.31;;;24.81;100.00
19831;BME280;10076;52.008;4.708;2023-04-08T09:40:12;102678.09;;;25.22;100.00
19831;BME280;10076;52.008;4.708;2023-04-08T09:42:43;102679.03;;;26.30;100.00
19831;BME280;10076;52.008;4.708;2023-04-08T09:45:10;102684.59;;;26.86;97.70
19831;BME280;10076;52.008;4.708;2023-04-08T09:47:54;102689.19;;;27.41;94.14
19831;BME280;10076;52.008;4.708;2023-04-08T09:50:24;102691.38;;;27.61;88.48
19831;BME280;10076;52.008;4.708;2023-04-08T09:52:52;102687.13;;;28.13;86.61
19831;BME280;10076;52.008;4.708;2023-04-08T09:55:21;102682.00;;;28.48;77.54
19831;BME280;10076;52.008;4.708;2023-04-08T09:58:08;102676.59;;;28.70;80.28
19831;BME280;10076;52.008;4.708;2023-04-08T10:00:41;102678.63;;;29.13;77.84
19831;BME280;10076;52.008;4.708;2023-04-08T10:03:13;102670.28;;;29.37;77.25
19831;BME280;10076;52.008;4.708;2023-04-08T10:05:45;102674.44;;;30.05;70.78
19831;BME280;10076;52.008;4.708;2023-04-08T10:08:11;102667.09;;;29.77;73.67
19831;BME280;10076;52.008;4.708;2023-04-08T10:10:38;102673.75;;;30.88;65.35
19831;BME280;10076;52.008;4.708;2023-04-08T10:13:06;102674.03;;;31.75;70.53
19831;BME280;10076;52.008;4.708;2023-04-08T10:15:32;102667.53;;;32.10;55.83
19831;BME280;10076;52.008;4.708;2023-04-08T10:25:42;102669.53;;;34.16;44.16
19831;BME280;10076;52.008;4.708;2023-04-08T10:33:09;102668.31;;;35.35;38.66
19831;BME280;10076;52.008;4.708;2023-04-08T10:35:35;102666.72;;;35.45;38.89
19831;BME280;10076;52.008;4.708;2023-04-08T10:38:02;102668.63;;;36.41;37.37
19831;BME280;10076;52.008;4.708;2023-04-08T10:40:27;102662.94;;;36.65;35.17
19831;BME280;10076;52.008;4.708;2023-04-08T10:42:54;102666.31;;;36.67;35.68
19831;BME280;10076;52.008;4.708;2023-04-08T10:45:19;102666.72;;;36.82;34.97
19831;BME280;10076;52.008;4.708;2023-04-08T10:47:45;102668.63;;;37.79;34.82
19831;BME280;10076;52.008;4.708;2023-04-08T10:50:14;102667.66;;;37.85;32.57
19831;BME280;10076;52.008;4.708;2023-04-08T10:55:12;102653.00;;;37.28;31.84
19831;BME280;10076;52.008;4.708;2023-04-08T10:57:37;102653.78;;;37.34;31.27
19831;BME280;10076;52.008;4.708;2023-04-08T11:00:09;102649.41;;;37.61;32.05
19831;BME280;10076;52.008;4.708;2023-04-08T11:02:37;102654.19;;;38.83;31.75
19831;BME280;10076;52.008;4.708;2023-04-08T11:05:02;102659.78;;;39.16;32.00
19831;BME280;10076;52.008;4.708;2023-04-08T11:07:28;102657.97;;;39.43;29.33
19831;BME280;10076;52.008;4.708;2023-04-08T11:09:53;102658.41;;;39.52;30.39
19831;BME280;10076;52.008;4.708;2023-04-08T11:12:19;102652.97;;;39.07;30.76
19831;BME280;10076;52.008;4.708;2023-04-08T11:14:46;102651.03;;;39.57;29.43
19831;BME280;10076;52.008;4.708;2023-04-08T11:17:14;102651.59;;;38.77;30.65
19831;BME280;10076;52.008;4.708;2023-04-08T11:19:40;102648.59;;;39.11;29.30
19831;BME280;10076;52.008;4.708;2023-04-08T11:22:06;102650.63;;;40.08;27.99
19831;BME280;10076;52.008;4.708;2023-04-08T11:24:34;102640.28;;;40.24;27.81
19831;BME280;10076;52.008;4.708;2023-04-08T11:27:01;102641.41;;;40.50;27.74
19831;BME280;10076;52.008;4.708;2023-04-08T11:29:27;102641.41;;;41.07;27.21
19831;BME280;10076;52.008;4.708;2023-04-08T11:31:54;102643.25;;;41.28;26.72
19831;BME280;10076;52.008;4.708;2023-04-08T11:34:21;102639.31;;;41.61;25.92
19831;BME280;10076;52.008;4.708;2023-04-08T11:36:48;102642.97;;;42.32;26.14
19831;BME280;10076;52.008;4.708;2023-04-08T11:39:14;102640.16;;;41.61;24.90
19831;BME280;10076;52.008;4.708;2023-04-08T11:41:39;102635.72;;;42.26;25.17
19831;BME280;10076;52.008;4.708;2023-04-08T11:44:05;102636.28;;;42.23;26.12
19831;BME280;10076;52.008;4.708;2023-04-08T11:46:31;102635.28;;;42.74;24.41
19831;BME280;10076;52.008;4.708;2023-04-08T11:48:58;102632.72;;;43.57;23.89
19831;BME280;10076;52.008;4.708;2023-04-08T11:51:23;102630.00;;;43.22;24.37
19831;BME280;10076;52.008;4.708;2023-04-08T11:53:49;102627.50;;;42.96;24.18
19831;BME280;10076;52.008;4.708;2023-04-08T11:56:21;102626.06;;;42.63;23.62
19831;BME280;10076;52.008;4.708;2023-04-08T11:58:48;102626.38;;;42.82;23.74
19831;BME280;10076;52.008;4.708;2023-04-08T12:01:14;102629.94;;;43.42;23.16
19831;BME280;10076;52.008;4.708;2023-04-08T12:03:56;102623.53;;;43.51;22.22
19831;BME280;10076;52.008;4.708;2023-04-08T12:06:21;102628.44;;;43.89;22.75
19831;BME280;10076;52.008;4.708;2023-04-08T12:08:47;102626.91;;;43.28;22.12
19831;BME280;10076;52.008;4.708;2023-04-08T12:11:13;102620.81;;;43.26;22.65
19831;BME280;10076;52.008;4.708;2023-04-08T12:13:40;102614.13;;;44.05;22.42
19831;BME280;10076;52.008;4.708;2023-04-08T12:16:05;102618.78;;;44.25;22.03
19831;BME280;10076;52.008;4.708;2023-04-08T12:18:30;102623.03;;;44.07;21.85
19831;BME280;10076;52.008;4.708;2023-04-08T12:20:56;102625.09;;;45.12;21.33
19831;BME280;10076;52.008;4.708;2023-04-08T12:23:21;102620.06;;;45.14;21.95
19831;BME280;10076;52.008;4.708;2023-04-08T12:25:46;102620.28;;;45.17;20.74
19831;BME280;10076;52.008;4.708;2023-04-08T12:28:12;102616.16;;;45.38;20.98
19831;BME280;10076;52.008;4.708;2023-04-08T12:30:37;102606.94;;;46.08;20.11
19831;BME280;10076;52.008;4.708;2023-04-08T12:33:02;102618.34;;;45.88;20.08
19831;BME280;10076;52.008;4.708;2023-04-08T12:35:28;102616.47;;;45.60;20.54
19831;BME280;10076;52.008;4.708;2023-04-08T12:37:53;102610.28;;;45.63;19.54
19831;BME280;10076;52.008;4.708;2023-04-08T12:40:18;102611.25;;;45.53;19.95
19831;BME280;10076;52.008;4.708;2023-04-08T12:42:43;102613.44;;;45.80;20.21
19831;BME280;10076;52.008;4.708;2023-04-08T12:45:09;102614.81;;;46.01;19.36
19831;BME280;10076;52.008;4.708;2023-04-08T12:47:34;102615.78;;;45.73;18.56
19831;BME280;10076;52.008;4.708;2023-04-08T12:49:59;102608.91;;;46.25;19.51
19831;BME280;10076;52.008;4.708;2023-04-08T12:52:26;102611.00;;;45.50;20.46
19831;BME280;10076;52.008;4.708;2023-04-08T12:54:51;102606.34;;;45.17;19.30
19831;BME280;10076;52.008;4.708;2023-04-08T12:57:16;102607.13;;;44.61;19.39